sensor_id;sensor_type;location;lat;lon;timestamp;P1;durP1;ratioP1;P2;durP2;ratioP2
22780;SDS011;11557;50.884;4.322;2022-12-18T00:00:59;67.88;;;37.08;;
22780;SDS011;11557;50.884;4.322;2022-12-18T00:03:25;64.20;;;36.60;;
22780;SDS011;11557;50.884;4.322;2022-12-18T00:05:51;64.15;;;36.05;;
22780;SDS011;11557;50.884;4.322;2022-12-18T00:08:17;66.18;;;38.17;;
22780;SDS011;11557;50.884;4.322;2022-12-18T00:10:45;67.28;;;36.10;;
22780;SDS011;11557;50.884;4.322;2022-12-18T00:13:12;65.85;;;35.80;;
22780;SDS011;11557;50.884;4.322;2022-12-18T00:15:38;60.63;;;34.80;;
22780;SDS011;11557;50.884;4.322;2022-12-18T00:18:04;65.22;;;36.13;;
22780;SDS011;11557;50.884;4.322;2022-12-18T00:20:31;71.82;;;36.30;;
22780;SDS011;11557;50.884;4.322;2022-12-18T00:23:00;62.10;;;34.53;;
22780;SDS011;11557;50.884;4.322;2022-12-18T00:25:26;62.13;;;34.50;;
22780;SDS011;11557;50.884;4.322;2022-12-18T00:27:52;58.33;;;34.55;;
22780;SDS011;11557;50.884;4.322;2022-12-18T00:30:17;58.80;;;34.50;;
22780;SDS011;11557;50.884;4.322;2022-12-18T00:32:43;66.95;;;38.08;;
22780;SDS011;11557;50.884;4.322;2022-12-18T00:35:10;66.18;;;36.97;;
22780;SDS011;11557;50.884;4.322;2022-12-18T00:37:35;65.15;;;36.90;;
22780;SDS011;11557;50.884;4.322;2022-12-18T00:40:02;66.70;;;35.33;;
22780;SDS011;11557;50.884;4.322;2022-12-18T00:42:28;67.30;;;35.22;;
22780;SDS011;11557;50.884;4.322;2022-12-18T00:45:12;64.93;;;34.03;;
22780;SDS011;11557;50.884;4.322;2022-12-18T00:47:38;57.00;;;32.45;;
22780;SDS011;11557;50.884;4.322;2022-12-18T00:50:04;56.83;;;31.95;;
22780;SDS011;11557;50.884;4.322;2022-12-18T00:52:30;58.40;;;32.42;;
22780;SDS011;11557;50.884;4.322;2022-12-18T00:54:56;54.13;;;31.17;;
22780;SDS011;11557;50.884;4.322;2022-12-18T00:57:21;58.78;;;31.83;;
22780;SDS011;11557;50.884;4.322;2022-12-18T00:59:47;58.67;;;32.92;;
22780;SDS011;11557;50.884;4.322;2022-12-18T01:02:15;58.53;;;31.48;;
22780;SDS011;11557;50.884;4.322;2022-12-18T01:04:41;59.08;;;31.00;;
22780;SDS011;11557;50.884;4.322;2022-12-18T01:07:06;50.63;;;30.13;;
22780;SDS011;11557;50.884;4.322;2022-12-18T01:09:32;56.85;;;31.58;;
22780;SDS011;11557;50.884;4.322;2022-12-18T01:11:58;55.50;;;30.95;;
22780;SDS011;11557;50.884;4.322;2022-12-18T01:14:23;57.03;;;29.77;;
22780;SDS011;11557;50.884;4.322;2022-12-18T01:16:49;53.08;;;30.35;;
22780;SDS011;11557;50.884;4.322;2022-12-18T01:19:15;52.30;;;30.05;;
22780;SDS011;11557;50.884;4.322;2022-12-18T01:21:40;47.45;;;29.58;;
22780;SDS011;11557;50.884;4.322;2022-12-18T01:24:06;48.35;;;28.02;;
22780;SDS011;11557;50.884;4.322;2022-12-18T01:26:32;52.13;;;29.48;;
22780;SDS011;11557;50.884;4.322;2022-12-18T01:28:57;51.42;;;28.27;;
22780;SDS011;11557;50.884;4.322;2022-12-18T01:31:24;48.60;;;27.95;;
22780;SDS011;11557;50.884;4.322;2022-12-18T01:33:52;49.22;;;27.48;;
22780;SDS011;11557;50.884;4.322;2022-12-18T01:36:23;51.65;;;27.70;;
22780;SDS011;11557;50.884;4.322;2022-12-18T01:38:53;50.40;;;28.17;;
22780;SDS011;11557;50.884;4.322;2022-12-18T01:41:21;49.58;;;27.63;;
22780;SDS011;11557;50.884;4.322;2022-12-18T01:43:53;49.45;;;27.05;;
22780;SDS011;11557;50.884;4.322;2022-12-18T01:46:20;49.22;;;26.52;;
22780;SDS011;11557;50.884;4.322;2022-12-18T01:48:48;50.65;;;27.42;;
22780;SDS011;11557;50.884;4.322;2022-12-18T01:51:26;51.05;;;27.42;;
22780;SDS011;11557;50.884;4.322;2022-12-18T01:53:54;46.72;;;28.00;;
22780;SDS011;11557;50.884;4.322;2022-12-18T01:56:20;49.92;;;27.13;;
22780;SDS011;11557;50.884;4.322;2022-12-18T02:01:19;51.97;;;27.70;;
22780;SDS011;11557;50.884;4.322;2022-12-18T02:03:47;45.97;;;27.25;;
22780;SDS011;11557;50.884;4.322;2022-12-18T02:06:17;49.65;;;28.67;;
22780;SDS011;11557;50.884;4.322;2022-12-18T02:09:04;43.47;;;25.17;;
22780;SDS011;11557;50.884;4.322;2022-12-18T02:14:38;46.97;;;25.58;;
22780;SDS011;11557;50.884;4.322;2022-12-18T02:17:29;42.53;;;24.05;;
22780;SDS011;11557;50.884;4.322;2022-12-18T02:22:48;41.63;;;24.48;;
22780;SDS011;11557;50.884;4.322;2022-12-18T02:26:26;40.45;;;23.98;;
22780;SDS011;11557;50.884;4.322;2022-12-18T02:28:51;43.10;;;25.17;;
22780;SDS011;11557;50.884;4.322;2022-12-18T02:31:23;43.40;;;23.23;;
22780;SDS011;11557;50.884;4.322;2022-12-18T02:33:53;45.30;;;24.67;;
22780;SDS011;11557;50.884;4.322;2022-12-18T02:36:23;39.35;;;23.48;;
22780;SDS011;11557;50.884;4.322;2022-12-18T02:38:51;37.42;;;22.95;;
22780;SDS011;11557;50.884;4.322;2022-12-18T02:41:18;40.08;;;23.38;;
22780;SDS011;11557;50.884;4.322;2022-12-18T02:43:48;37.90;;;22.73;;
22780;SDS011;11557;50.884;4.322;2022-12-18T02:46:25;41.20;;;22.52;;
22780;SDS011;11557;50.884;4.322;2022-12-18T02:49:06;37.13;;;21.45;;
22780;SDS011;11557;50.884;4.322;2022-12-18T02:51:44;39.33;;;22.35;;
22780;SDS011;11557;50.884;4.322;2022-12-18T02:54:27;38.22;;;22.55;;
22780;SDS011;11557;50.884;4.322;2022-12-18T02:59:56;38.72;;;23.30;;
22780;SDS011;11557;50.884;4.322;2022-12-18T03:05:12;35.90;;;20.77;;
22780;SDS011;11557;50.884;4.322;2022-12-18T03:10:25;37.97;;;22.95;;
22780;SDS011;11557;50.884;4.322;2022-12-18T03:12:56;36.10;;;21.75;;
22780;SDS011;11557;50.884;4.322;2022-12-18T03:15:28;41.60;;;22.33;;
22780;SDS011;11557;50.884;4.322;2022-12-18T03:18:17;35.60;;;21.25;;
22780;SDS011;11557;50.884;4.322;2022-12-18T03:20:47;35.97;;;20.80;;
22780;SDS011;11557;50.884;4.322;2022-12-18T03:23:18;37.03;;;21.67;;
22780;SDS011;11557;50.884;4.322;2022-12-18T03:25:47;37.40;;;22.48;;
22780;SDS011;11557;50.884;4.322;2022-12-18T03:28:19;35.17;;;20.63;;
22780;SDS011;11557;50.884;4.322;2022-12-18T03:30:47;37.55;;;20.65;;
22780;SDS011;11557;50.884;4.322;2022-12-18T03:33:18;35.50;;;21.30;;
22780;SDS011;11557;50.884;4.322;2022-12-18T03:35:49;37.33;;;22.23;;
22780;SDS011;11557;50.884;4.322;2022-12-18T03:38:15;34.95;;;19.98;;
22780;SDS011;11557;50.884;4.322;2022-12-18T03:40:43;34.55;;;20.02;;
22780;SDS011;11557;50.884;4.322;2022-12-18T03:43:38;34.40;;;20.65;;
22780;SDS011;11557;50.884;4.322;2022-12-18T03:46:25;34.70;;;19.15;;
22780;SDS011;11557;50.884;4.322;2022-12-18T03:48:58;35.75;;;19.90;;
22780;SDS011;11557;50.884;4.322;2022-12-18T03:54:32;33.75;;;20.02;;
22780;SDS011;11557;50.884;4.322;2022-12-18T03:57:04;33.22;;;19.73;;
22780;SDS011;11557;50.884;4.322;2022-12-18T03:59:38;31.63;;;19.38;;
22780;SDS011;11557;50.884;4.322;2022-12-18T04:02:04;33.80;;;19.50;;
22780;SDS011;11557;50.884;4.322;2022-12-18T04:04:33;32.53;;;19.27;;
22780;SDS011;11557;50.884;4.322;2022-12-18T04:07:02;37.08;;;20.88;;
22780;SDS011;11557;50.884;4.322;2022-12-18T04:09:29;32.88;;;19.85;;
22780;SDS011;11557;50.884;4.322;2022-12-18T04:11:58;30.98;;;18.40;;
22780;SDS011;11557;50.884;4.322;2022-12-18T04:14:23;32.97;;;19.45;;
22780;SDS011;11557;50.884;4.322;2022-12-18T04:16:49;32.38;;;19.10;;
22780;SDS011;11557;50.884;4.322;2022-12-18T04:19:15;31.30;;;18.73;;
22780;SDS011;11557;50.884;4.322;2022-12-18T04:21:40;32.50;;;18.75;;
22780;SDS011;11557;50.884;4.322;2022-12-18T04:24:06;32.03;;;18.38;;
22780;SDS011;11557;50.884;4.322;2022-12-18T04:26:32;32.50;;;18.92;;
22780;SDS011;11557;50.884;4.322;2022-12-18T04:28:57;30.70;;;17.50;;
22780;SDS011;11557;50.884;4.322;2022-12-18T04:31:23;32.28;;;17.45;;
22780;SDS011;11557;50.884;4.322;2022-12-18T04:33:51;30.20;;;18.15;;
22780;SDS011;11557;50.884;4.322;2022-12-18T04:36:16;34.80;;;18.77;;
22780;SDS011;11557;50.884;4.322;2022-12-18T04:38:42;29.50;;;17.90;;
22780;SDS011;11557;50.884;4.322;2022-12-18T04:41:08;32.42;;;18.15;;
22780;SDS011;11557;50.884;4.322;2022-12-18T04:43:33;29.23;;;17.23;;
22780;SDS011;11557;50.884;4.322;2022-12-18T04:46:06;32.20;;;18.05;;
22780;SDS011;11557;50.884;4.322;2022-12-18T04:48:32;29.98;;;17.50;;
22780;SDS011;11557;50.884;4.322;2022-12-18T04:50:58;28.05;;;17.45;;
22780;SDS011;11557;50.884;4.322;2022-12-18T04:53:24;26.98;;;18.00;;
22780;SDS011;11557;50.884;4.322;2022-12-18T04:55:50;27.00;;;16.52;;
22780;SDS011;11557;50.884;4.322;2022-12-18T04:58:15;29.85;;;16.50;;
22780;SDS011;11557;50.884;4.322;2022-12-18T05:00:41;29.73;;;17.17;;
22780;SDS011;11557;50.884;4.322;2022-12-18T05:03:07;31.35;;;17.45;;
22780;SDS011;11557;50.884;4.322;2022-12-18T05:05:34;29.25;;;17.52;;
22780;SDS011;11557;50.884;4.322;2022-12-18T05:08:00;28.10;;;17.60;;
22780;SDS011;11557;50.884;4.322;2022-12-18T05:10:25;27.15;;;17.00;;
22780;SDS011;11557;50.884;4.322;2022-12-18T05:12:51;29.33;;;17.08;;
22780;SDS011;11557;50.884;4.322;2022-12-18T05:15:23;31.00;;;17.77;;
22780;SDS011;11557;50.884;4.322;2022-12-18T05:17:55;31.23;;;17.30;;
22780;SDS011;11557;50.884;4.322;2022-12-18T05:20:22;27.60;;;17.00;;
22780;SDS011;11557;50.884;4.322;2022-12-18T05:22:48;28.48;;;16.33;;
22780;SDS011;11557;50.884;4.322;2022-12-18T05:25:14;31.92;;;16.77;;
22780;SDS011;11557;50.884;4.322;2022-12-18T05:27:40;28.33;;;15.65;;
22780;SDS011;11557;50.884;4.322;2022-12-18T05:30:06;26.92;;;15.95;;
22780;SDS011;11557;50.884;4.322;2022-12-18T05:32:33;29.52;;;17.38;;
22780;SDS011;11557;50.884;4.322;2022-12-18T05:34:58;28.30;;;16.27;;
22780;SDS011;11557;50.884;4.322;2022-12-18T05:37:24;28.30;;;16.27;;
22780;SDS011;11557;50.884;4.322;2022-12-18T05:39:49;26.95;;;16.85;;
22780;SDS011;11557;50.884;4.322;2022-12-18T05:42:15;28.70;;;15.27;;
22780;SDS011;11557;50.884;4.322;2022-12-18T05:44:41;24.95;;;15.05;;
22780;SDS011;11557;50.884;4.322;2022-12-18T05:47:08;25.88;;;15.48;;
22780;SDS011;11557;50.884;4.322;2022-12-18T05:49:34;28.52;;;16.13;;
22780;SDS011;11557;50.884;4.322;2022-12-18T05:52:00;27.05;;;15.15;;
22780;SDS011;11557;50.884;4.322;2022-12-18T05:54:27;28.35;;;15.13;;
22780;SDS011;11557;50.884;4.322;2022-12-18T05:56:53;28.30;;;15.45;;
22780;SDS011;11557;50.884;4.322;2022-12-18T05:59:19;27.27;;;16.33;;
22780;SDS011;11557;50.884;4.322;2022-12-18T06:01:45;26.38;;;15.93;;
22780;SDS011;11557;50.884;4.322;2022-12-18T06:04:10;25.88;;;14.98;;
22780;SDS011;11557;50.884;4.322;2022-12-18T06:06:36;27.85;;;16.52;;
22780;SDS011;11557;50.884;4.322;2022-12-18T06:09:03;28.83;;;16.38;;
22780;SDS011;11557;50.884;4.322;2022-12-18T06:11:34;24.63;;;16.00;;
22780;SDS011;11557;50.884;4.322;2022-12-18T06:14:01;25.88;;;14.90;;
22780;SDS011;11557;50.884;4.322;2022-12-18T06:16:28;29.08;;;16.55;;
22780;SDS011;11557;50.884;4.322;2022-12-18T06:18:58;26.00;;;15.82;;
22780;SDS011;11557;50.884;4.322;2022-12-18T06:21:24;27.38;;;16.38;;
22780;SDS011;11557;50.884;4.322;2022-12-18T06:23:50;25.27;;;15.90;;
22780;SDS011;11557;50.884;4.322;2022-12-18T06:26:16;23.85;;;15.02;;
22780;SDS011;11557;50.884;4.322;2022-12-18T06:28:41;26.23;;;15.88;;
22780;SDS011;11557;50.884;4.322;2022-12-18T06:31:08;27.20;;;16.00;;
22780;SDS011;11557;50.884;4.322;2022-12-18T06:33:34;28.58;;;16.45;;
22780;SDS011;11557;50.884;4.322;2022-12-18T06:36:01;31.00;;;17.02;;
22780;SDS011;11557;50.884;4.322;2022-12-18T06:38:27;26.35;;;15.80;;
22780;SDS011;11557;50.884;4.322;2022-12-18T06:40:53;29.60;;;16.83;;
22780;SDS011;11557;50.884;4.322;2022-12-18T06:43:18;29.38;;;16.50;;
22780;SDS011;11557;50.884;4.322;2022-12-18T06:45:44;27.10;;;16.15;;
22780;SDS011;11557;50.884;4.322;2022-12-18T06:48:11;25.73;;;15.13;;
22780;SDS011;11557;50.884;4.322;2022-12-18T06:50:36;30.00;;;15.65;;
22780;SDS011;11557;50.884;4.322;2022-12-18T06:53:02;24.35;;;14.60;;
22780;SDS011;11557;50.884;4.322;2022-12-18T06:55:28;26.30;;;14.35;;
22780;SDS011;11557;50.884;4.322;2022-12-18T06:57:53;25.63;;;15.50;;
22780;SDS011;11557;50.884;4.322;2022-12-18T07:00:19;24.23;;;14.95;;
22780;SDS011;11557;50.884;4.322;2022-12-18T07:02:45;24.83;;;14.18;;
22780;SDS011;11557;50.884;4.322;2022-12-18T07:05:10;24.42;;;15.07;;
22780;SDS011;11557;50.884;4.322;2022-12-18T07:07:38;30.05;;;16.55;;
22780;SDS011;11557;50.884;4.322;2022-12-18T07:10:04;25.73;;;15.20;;
22780;SDS011;11557;50.884;4.322;2022-12-18T07:12:30;24.85;;;14.20;;
22780;SDS011;11557;50.884;4.322;2022-12-18T07:14:55;25.73;;;14.52;;
22780;SDS011;11557;50.884;4.322;2022-12-18T07:17:21;24.38;;;15.07;;
22780;SDS011;11557;50.884;4.322;2022-12-18T07:19:47;23.02;;;14.48;;
22780;SDS011;11557;50.884;4.322;2022-12-18T07:22:13;22.80;;;14.48;;
22780;SDS011;11557;50.884;4.322;2022-12-18T07:24:38;25.52;;;14.65;;
22780;SDS011;11557;50.884;4.322;2022-12-18T07:27:04;23.80;;;14.82;;
22780;SDS011;11557;50.884;4.322;2022-12-18T07:29:30;22.98;;;14.35;;
22780;SDS011;11557;50.884;4.322;2022-12-18T07:31:56;26.27;;;15.48;;
22780;SDS011;11557;50.884;4.322;2022-12-18T07:34:21;22.33;;;14.20;;
22780;SDS011;11557;50.884;4.322;2022-12-18T07:36:47;21.48;;;13.05;;
22780;SDS011;11557;50.884;4.322;2022-12-18T07:39:13;22.50;;;13.60;;
22780;SDS011;11557;50.884;4.322;2022-12-18T07:41:38;22.65;;;13.73;;
22780;SDS011;11557;50.884;4.322;2022-12-18T07:44:10;24.88;;;13.70;;
22780;SDS011;11557;50.884;4.322;2022-12-18T07:46:37;24.85;;;15.13;;
22780;SDS011;11557;50.884;4.322;2022-12-18T07:49:03;24.30;;;14.50;;
22780;SDS011;11557;50.884;4.322;2022-12-18T07:51:28;25.40;;;14.32;;
22780;SDS011;11557;50.884;4.322;2022-12-18T07:53:54;24.42;;;14.20;;
22780;SDS011;11557;50.884;4.322;2022-12-18T07:56:20;23.65;;;14.18;;
22780;SDS011;11557;50.884;4.322;2022-12-18T07:58:46;22.65;;;13.57;;
22780;SDS011;11557;50.884;4.322;2022-12-18T08:01:12;20.90;;;12.13;;
22780;SDS011;11557;50.884;4.322;2022-12-18T08:03:38;23.73;;;13.57;;
22780;SDS011;11557;50.884;4.322;2022-12-18T08:06:05;22.70;;;13.77;;
22780;SDS011;11557;50.884;4.322;2022-12-18T08:08:33;28.23;;;13.45;;
22780;SDS011;11557;50.884;4.322;2022-12-18T08:10:59;22.25;;;13.90;;
22780;SDS011;11557;50.884;4.322;2022-12-18T08:13:25;22.20;;;13.82;;
22780;SDS011;11557;50.884;4.322;2022-12-18T08:15:55;23.55;;;13.27;;
22780;SDS011;11557;50.884;4.322;2022-12-18T08:18:25;19.88;;;13.00;;
22780;SDS011;11557;50.884;4.322;2022-12-18T08:20:51;23.67;;;13.38;;
22780;SDS011;11557;50.884;4.322;2022-12-18T08:23:17;21.48;;;12.35;;
22780;SDS011;11557;50.884;4.322;2022-12-18T08:25:42;22.38;;;12.45;;
22780;SDS011;11557;50.884;4.322;2022-12-18T08:28:09;23.00;;;12.82;;
22780;SDS011;11557;50.884;4.322;2022-12-18T08:30:35;22.02;;;12.52;;
22780;SDS011;11557;50.884;4.322;2022-12-18T08:33:01;20.33;;;12.75;;
22780;SDS011;11557;50.884;4.322;2022-12-18T08:35:26;20.67;;;12.82;;
22780;SDS011;11557;50.884;4.322;2022-12-18T08:37:53;19.13;;;12.65;;
22780;SDS011;11557;50.884;4.322;2022-12-18T08:40:19;19.63;;;13.07;;
22780;SDS011;11557;50.884;4.322;2022-12-18T08:42:44;22.25;;;12.65;;
22780;SDS011;11557;50.884;4.322;2022-12-18T08:45:28;14.43;;;9.30;;
22780;SDS011;11557;50.884;4.322;2022-12-18T08:47:54;21.67;;;12.57;;
22780;SDS011;11557;50.884;4.322;2022-12-18T08:50:20;19.13;;;12.63;;
22780;SDS011;11557;50.884;4.322;2022-12-18T08:52:46;17.75;;;12.10;;
22780;SDS011;11557;50.884;4.322;2022-12-18T08:55:11;23.15;;;12.93;;
22780;SDS011;11557;50.884;4.322;2022-12-18T08:57:37;22.85;;;12.68;;
22780;SDS011;11557;50.884;4.322;2022-12-18T09:00:03;18.30;;;11.75;;
22780;SDS011;11557;50.884;4.322;2022-12-18T09:02:29;18.35;;;12.18;;
22780;SDS011;11557;50.884;4.322;2022-12-18T09:04:55;19.10;;;12.55;;
22780;SDS011;11557;50.884;4.322;2022-12-18T09:07:21;20.92;;;12.45;;
22780;SDS011;11557;50.884;4.322;2022-12-18T09:09:46;19.75;;;12.60;;
22780;SDS011;11557;50.884;4.322;2022-12-18T09:12:12;16.92;;;11.80;;
22780;SDS011;11557;50.884;4.322;2022-12-18T09:14:37;20.05;;;12.43;;
22780;SDS011;11557;50.884;4.322;2022-12-18T09:17:03;17.80;;;11.07;;
22780;SDS011;11557;50.884;4.322;2022-12-18T09:19:29;19.30;;;11.55;;
22780;SDS011;11557;50.884;4.322;2022-12-18T09:21:54;15.80;;;10.90;;
22780;SDS011;11557;50.884;4.322;2022-12-18T09:24:20;18.42;;;12.13;;
22780;SDS011;11557;50.884;4.322;2022-12-18T09:26:46;16.70;;;10.65;;
22780;SDS011;11557;50.884;4.322;2022-12-18T09:29:12;20.92;;;13.05;;
22780;SDS011;11557;50.884;4.322;2022-12-18T09:31:39;17.75;;;11.82;;
22780;SDS011;11557;50.884;4.322;2022-12-18T09:34:05;17.73;;;11.65;;
22780;SDS011;11557;50.884;4.322;2022-12-18T09:36:31;20.38;;;13.50;;
22780;SDS011;11557;50.884;4.322;2022-12-18T09:38:56;23.83;;;15.13;;
22780;SDS011;11557;50.884;4.322;2022-12-18T09:41:42;21.23;;;14.77;;
22780;SDS011;11557;50.884;4.322;2022-12-18T09:47:04;18.88;;;12.52;;
22780;SDS011;11557;50.884;4.322;2022-12-18T09:49:42;15.73;;;11.32;;
22780;SDS011;11557;50.884;4.322;2022-12-18T09:55:11;17.63;;;11.32;;
22780;SDS011;11557;50.884;4.322;2022-12-18T09:57:51;20.63;;;12.40;;
22780;SDS011;11557;50.884;4.322;2022-12-18T10:00:21;19.67;;;12.80;;
22780;SDS011;11557;50.884;4.322;2022-12-18T10:02:49;20.05;;;12.68;;
22780;SDS011;11557;50.884;4.322;2022-12-18T10:05:20;16.70;;;11.35;;
22780;SDS011;11557;50.884;4.322;2022-12-18T10:08:05;16.85;;;11.98;;
22780;SDS011;11557;50.884;4.322;2022-12-18T10:13:33;20.65;;;12.68;;
22780;SDS011;11557;50.884;4.322;2022-12-18T10:26:36;21.95;;;13.82;;
22780;SDS011;11557;50.884;4.322;2022-12-18T10:29:03;21.50;;;15.18;;
22780;SDS011;11557;50.884;4.322;2022-12-18T10:31:36;14.95;;;10.30;;
22780;SDS011;11557;50.884;4.322;2022-12-18T10:34:01;18.35;;;13.13;;
22780;SDS011;11557;50.884;4.322;2022-12-18T10:36:27;20.55;;;14.20;;
22780;SDS011;11557;50.884;4.322;2022-12-18T10:38:53;20.58;;;13.90;;
22780;SDS011;11557;50.884;4.322;2022-12-18T10:41:25;22.45;;;14.77;;
22780;SDS011;11557;50.884;4.322;2022-12-18T10:46:44;26.55;;;15.68;;
22780;SDS011;11557;50.884;4.322;2022-12-18T10:49:46;23.67;;;15.48;;
22780;SDS011;11557;50.884;4.322;2022-12-18T10:52:07;26.13;;;17.08;;
22780;SDS011;11557;50.884;4.322;2022-12-18T10:54:48;27.23;;;17.77;;
22780;SDS011;11557;50.884;4.322;2022-12-18T10:57:56;33.05;;;20.65;;
22780;SDS011;11557;50.884;4.322;2022-12-18T11:00:22;24.50;;;16.48;;
22780;SDS011;11557;50.884;4.322;2022-12-18T11:02:49;27.35;;;16.85;;
22780;SDS011;11557;50.884;4.322;2022-12-18T11:05:23;28.67;;;23.08;;
22780;SDS011;11557;50.884;4.322;2022-12-18T11:08:12;26.40;;;18.08;;
22780;SDS011;11557;50.884;4.322;2022-12-18T11:10:46;24.95;;;16.77;;
22780;SDS011;11557;50.884;4.322;2022-12-18T11:13:14;27.48;;;19.17;;
22780;SDS011;11557;50.884;4.322;2022-12-18T11:15:43;27.08;;;17.25;;
22780;SDS011;11557;50.884;4.322;2022-12-18T11:18:20;21.15;;;15.65;;
22780;SDS011;11557;50.884;4.322;2022-12-18T11:20:59;34.85;;;25.52;;
22780;SDS011;11557;50.884;4.322;2022-12-18T11:23:32;25.75;;;16.27;;
22780;SDS011;11557;50.884;4.322;2022-12-18T11:26:01;25.23;;;16.65;;
22780;SDS011;11557;50.884;4.322;2022-12-18T11:31:20;28.70;;;15.27;;
22780;SDS011;11557;50.884;4.322;2022-12-18T11:33:49;28.27;;;16.40;;
22780;SDS011;11557;50.884;4.322;2022-12-18T11:36:39;22.85;;;15.70;;
22780;SDS011;11557;50.884;4.322;2022-12-18T11:39:19;24.20;;;15.65;;
22780;SDS011;11557;50.884;4.322;2022-12-18T11:41:57;22.63;;;13.95;;
22780;SDS011;11557;50.884;4.322;2022-12-18T11:44:54;23.75;;;14.77;;
22780;SDS011;11557;50.884;4.322;2022-12-18T11:47:44;22.90;;;14.98;;
22780;SDS011;11557;50.884;4.322;2022-12-18T11:50:23;20.88;;;13.75;;
22780;SDS011;11557;50.884;4.322;2022-12-18T11:52:51;19.50;;;14.10;;
22780;SDS011;11557;50.884;4.322;2022-12-18T12:01:16;27.08;;;17.60;;
22780;SDS011;11557;50.884;4.322;2022-12-18T12:03:48;24.67;;;17.23;;
22780;SDS011;11557;50.884;4.322;2022-12-18T12:06:53;32.42;;;20.90;;
22780;SDS011;11557;50.884;4.322;2022-12-18T12:15:17;26.65;;;18.20;;
22780;SDS011;11557;50.884;4.322;2022-12-18T12:20:59;25.65;;;15.48;;
22780;SDS011;11557;50.884;4.322;2022-12-18T12:29:34;22.70;;;14.80;;
22780;SDS011;11557;50.884;4.322;2022-12-18T12:40:05;22.38;;;14.15;;
22780;SDS011;11557;50.884;4.322;2022-12-18T12:42:34;21.80;;;14.73;;
22780;SDS011;11557;50.884;4.322;2022-12-18T12:45:30;21.50;;;14.25;;
22780;SDS011;11557;50.884;4.322;2022-12-18T12:48:05;29.92;;;17.63;;
22780;SDS011;11557;50.884;4.322;2022-12-18T12:50:39;26.52;;;17.48;;
22780;SDS011;11557;50.884;4.322;2022-12-18T12:53:07;27.73;;;16.20;;
22780;SDS011;11557;50.884;4.322;2022-12-18T12:55:34;25.08;;;15.25;;
22780;SDS011;11557;50.884;4.322;2022-12-18T13:01:02;28.13;;;16.02;;
22780;SDS011;11557;50.884;4.322;2022-12-18T13:04:00;27.08;;;15.43;;
22780;SDS011;11557;50.884;4.322;2022-12-18T13:12:58;27.90;;;16.05;;
22780;SDS011;11557;50.884;4.322;2022-12-18T13:15:29;24.88;;;15.65;;
22780;SDS011;11557;50.884;4.322;2022-12-18T13:20:43;29.45;;;16.55;;
22780;SDS011;11557;50.884;4.322;2022-12-18T13:25:53;27.17;;;16.70;;
22780;SDS011;11557;50.884;4.322;2022-12-18T13:30:59;30.95;;;17.45;;
22780;SDS011;11557;50.884;4.322;2022-12-18T13:35:58;30.90;;;17.48;;
22780;SDS011;11557;50.884;4.322;2022-12-18T13:41:00;31.35;;;18.25;;
22780;SDS011;11557;50.884;4.322;2022-12-18T13:43:31;29.25;;;18.58;;
22780;SDS011;11557;50.884;4.322;2022-12-18T13:49:06;32.05;;;18.67;;
22780;SDS011;11557;50.884;4.322;2022-12-18T13:51:48;32.83;;;19.48;;
22780;SDS011;11557;50.884;4.322;2022-12-18T13:57:05;34.72;;;18.92;;
22780;SDS011;11557;50.884;4.322;2022-12-18T13:59:50;36.28;;;20.38;;
22780;SDS011;11557;50.884;4.322;2022-12-18T14:02:17;31.05;;;19.50;;
22780;SDS011;11557;50.884;4.322;2022-12-18T14:04:46;34.40;;;19.90;;
22780;SDS011;11557;50.884;4.322;2022-12-18T14:07:14;32.97;;;20.45;;
22780;SDS011;11557;50.884;4.322;2022-12-18T14:09:46;36.55;;;19.98;;
22780;SDS011;11557;50.884;4.322;2022-12-18T14:12:16;36.38;;;21.38;;
22780;SDS011;11557;50.884;4.322;2022-12-18T14:15:03;36.25;;;21.38;;
22780;SDS011;11557;50.884;4.322;2022-12-18T14:17:31;42.80;;;23.20;;
22780;SDS011;11557;50.884;4.322;2022-12-18T14:19:57;34.17;;;21.58;;
22780;SDS011;11557;50.884;4.322;2022-12-18T14:22:26;39.45;;;22.20;;
22780;SDS011;11557;50.884;4.322;2022-12-18T14:27:44;34.50;;;21.00;;
22780;SDS011;11557;50.884;4.322;2022-12-18T14:35:37;32.53;;;21.13;;
22780;SDS011;11557;50.884;4.322;2022-12-18T14:38:29;36.50;;;21.92;;
22780;SDS011;11557;50.884;4.322;2022-12-18T14:41:01;37.90;;;21.88;;
22780;SDS011;11557;50.884;4.322;2022-12-18T14:43:29;37.33;;;21.58;;
22780;SDS011;11557;50.884;4.322;2022-12-18T14:45:57;36.95;;;22.92;;
22780;SDS011;11557;50.884;4.322;2022-12-18T14:48:36;42.03;;;22.05;;
22780;SDS011;11557;50.884;4.322;2022-12-18T14:53:36;38.63;;;23.80;;
22780;SDS011;11557;50.884;4.322;2022-12-18T14:58:47;38.70;;;22.63;;
22780;SDS011;11557;50.884;4.322;2022-12-18T15:01:19;39.25;;;22.77;;
22780;SDS011;11557;50.884;4.322;2022-12-18T15:03:46;44.28;;;22.80;;
22780;SDS011;11557;50.884;4.322;2022-12-18T15:06:16;38.33;;;22.75;;
22780;SDS011;11557;50.884;4.322;2022-12-18T15:08:43;43.65;;;24.55;;
22780;SDS011;11557;50.884;4.322;2022-12-18T15:11:28;44.13;;;24.33;;
22780;SDS011;11557;50.884;4.322;2022-12-18T15:13:58;37.88;;;22.75;;
22780;SDS011;11557;50.884;4.322;2022-12-18T15:16:24;39.42;;;24.15;;
22780;SDS011;11557;50.884;4.322;2022-12-18T15:18:50;35.63;;;23.13;;
22780;SDS011;11557;50.884;4.322;2022-12-18T15:21:17;41.60;;;23.10;;
22780;SDS011;11557;50.884;4.322;2022-12-18T15:26:10;39.50;;;23.02;;
22780;SDS011;11557;50.884;4.322;2022-12-18T15:28:38;40.10;;;23.33;;
22780;SDS011;11557;50.884;4.322;2022-12-18T15:31:23;40.50;;;23.85;;
22780;SDS011;11557;50.884;4.322;2022-12-18T15:36:24;38.55;;;22.25;;
22780;SDS011;11557;50.884;4.322;2022-12-18T15:38:50;42.10;;;24.27;;
22780;SDS011;11557;50.884;4.322;2022-12-18T15:41:18;41.13;;;23.73;;
22780;SDS011;11557;50.884;4.322;2022-12-18T15:43:46;38.00;;;22.80;;
22780;SDS011;11557;50.884;4.322;2022-12-18T15:46:14;39.35;;;22.17;;
22780;SDS011;11557;50.884;4.322;2022-12-18T15:48:48;36.93;;;22.40;;
22780;SDS011;11557;50.884;4.322;2022-12-18T15:51:23;40.75;;;22.25;;
22780;SDS011;11557;50.884;4.322;2022-12-18T15:53:52;39.53;;;22.73;;
22780;SDS011;11557;50.884;4.322;2022-12-18T15:56:20;41.42;;;22.42;;
22780;SDS011;11557;50.884;4.322;2022-12-18T15:59:08;40.63;;;23.90;;
22780;SDS011;11557;50.884;4.322;2022-12-18T16:01:39;41.53;;;21.95;;
22780;SDS011;11557;50.884;4.322;2022-12-18T16:04:08;44.03;;;24.00;;
22780;SDS011;11557;50.884;4.322;2022-12-18T16:06:39;37.88;;;21.70;;
22780;SDS011;11557;50.884;4.322;2022-12-18T16:09:07;44.28;;;22.95;;
22780;SDS011;11557;50.884;4.322;2022-12-18T16:11:34;41.05;;;23.30;;
22780;SDS011;11557;50.884;4.322;2022-12-18T16:16:42;41.22;;;22.58;;
22780;SDS011;11557;50.884;4.322;2022-12-18T16:19:08;40.75;;;23.20;;
22780;SDS011;11557;50.884;4.322;2022-12-18T16:21:35;37.70;;;21.95;;
22780;SDS011;11557;50.884;4.322;2022-12-18T16:24:01;42.70;;;23.60;;
22780;SDS011;11557;50.884;4.322;2022-12-18T16:26:26;38.28;;;23.00;;
22780;SDS011;11557;50.884;4.322;2022-12-18T16:28:52;37.67;;;22.83;;
22780;SDS011;11557;50.884;4.322;2022-12-18T16:31:18;38.63;;;22.48;;
22780;SDS011;11557;50.884;4.322;2022-12-18T16:33:44;36.40;;;21.73;;
22780;SDS011;11557;50.884;4.322;2022-12-18T16:36:09;39.13;;;21.85;;
22780;SDS011;11557;50.884;4.322;2022-12-18T16:38:35;36.55;;;21.60;;